sensor_id;sensor_type;location;lat;lon;timestamp;P1;durP1;ratioP1;P2;durP2;ratioP2
16033;SDS011;8121;51.418;6.998;2022-11-18T00:03:18;1.80;;;1.30;;
16033;SDS011;8121;51.418;6.998;2022-11-18T00:13:20;1.30;;;1.20;;
16033;SDS011;8121;51.418;6.998;2022-11-18T00:23:40;1.37;;;0.80;;
16033;SDS011;8121;51.418;6.998;2022-11-18T00:33:43;3.03;;;0.80;;
16033;SDS011;8121;51.418;6.998;2022-11-18T00:43:44;1.03;;;0.90;;
16033;SDS011;8121;51.418;6.998;2022-11-18T00:53:47;4.37;;;1.23;;
16033;SDS011;8121;51.418;6.998;2022-11-18T01:03:48;1.30;;;1.00;;
16033;SDS011;8121;51.418;6.998;2022-11-18T01:13:51;1.67;;;0.80;;
16033;SDS011;8121;51.418;6.998;2022-11-18T01:23:53;2.40;;;1.00;;
16033;SDS011;8121;51.418;6.998;2022-11-18T01:33:56;3.87;;;1.60;;
16033;SDS011;8121;51.418;6.998;2022-11-18T01:43:59;1.40;;;1.30;;
16033;SDS011;8121;51.418;6.998;2022-11-18T01:54:04;1.30;;;1.20;;
16033;SDS011;8121;51.418;6.998;2022-11-18T02:04:08;3.23;;;0.80;;
16033;SDS011;8121;51.418;6.998;2022-11-18T02:14:11;2.67;;;1.30;;
16033;SDS011;8121;51.418;6.998;2022-11-18T02:24:27;1.20;;;0.83;;
16033;SDS011;8121;51.418;6.998;2022-11-18T02:34:43;1.40;;;0.90;;
16033;SDS011;8121;51.418;6.998;2022-11-18T02:44:49;1.63;;;1.10;;
16033;SDS011;8121;51.418;6.998;2022-11-18T02:54:54;1.00;;;0.70;;
16033;SDS011;8121;51.418;6.998;2022-11-18T03:04:56;1.00;;;0.70;;
16033;SDS011;8121;51.418;6.998;2022-11-18T03:15:02;2.30;;;0.90;;
16033;SDS011;8121;51.418;6.998;2022-11-18T03:25:13;0.70;;;0.67;;
16033;SDS011;8121;51.418;6.998;2022-11-18T03:35:21;1.03;;;0.73;;
16033;SDS011;8121;51.418;6.998;2022-11-18T03:45:24;1.27;;;0.90;;
16033;SDS011;8121;51.418;6.998;2022-11-18T03:55:31;0.83;;;0.80;;
16033;SDS011;8121;51.418;6.998;2022-11-18T04:05:35;2.60;;;0.80;;
16033;SDS011;8121;51.418;6.998;2022-11-18T04:15:40;1.27;;;0.80;;
16033;SDS011;8121;51.418;6.998;2022-11-18T04:25:42;1.37;;;1.07;;
16033;SDS011;8121;51.418;6.998;2022-11-18T04:35:46;1.30;;;0.80;;
16033;SDS011;8121;51.418;6.998;2022-11-18T04:45:47;1.33;;;0.80;;
16033;SDS011;8121;51.418;6.998;2022-11-18T04:55:50;0.70;;;0.60;;
16033;SDS011;8121;51.418;6.998;2022-11-18T05:05:52;0.90;;;0.90;;
16033;SDS011;8121;51.418;6.998;2022-11-18T05:15:55;1.00;;;0.90;;
16033;SDS011;8121;51.418;6.998;2022-11-18T05:26:01;1.33;;;1.00;;
16033;SDS011;8121;51.418;6.998;2022-11-18T05:36:07;1.10;;;1.00;;
16033;SDS011;8121;51.418;6.998;2022-11-18T05:46:11;1.13;;;1.03;;
16033;SDS011;8121;51.418;6.998;2022-11-18T05:56:16;1.00;;;0.90;;
16033;SDS011;8121;51.418;6.998;2022-11-18T06:06:23;0.87;;;0.83;;
16033;SDS011;8121;51.418;6.998;2022-11-18T06:16:27;5.03;;;1.27;;
16033;SDS011;8121;51.418;6.998;2022-11-18T06:26:29;1.37;;;0.90;;
16033;SDS011;8121;51.418;6.998;2022-11-18T06:36:32;1.13;;;1.03;;
16033;SDS011;8121;51.418;6.998;2022-11-18T06:46:34;1.47;;;0.97;;
16033;SDS011;8121;51.418;6.998;2022-11-18T06:56:54;1.10;;;1.00;;
16033;SDS011;8121;51.418;6.998;2022-11-18T07:06:56;4.40;;;1.00;;
16033;SDS011;8121;51.418;6.998;2022-11-18T07:16:58;1.17;;;1.00;;
16033;SDS011;8121;51.418;6.998;2022-11-18T07:27:00;1.40;;;1.30;;
16033;SDS011;8121;51.418;6.998;2022-11-18T07:37:03;1.40;;;1.00;;
16033;SDS011;8121;51.418;6.998;2022-11-18T07:47:04;6.00;;;0.90;;
16033;SDS011;8121;51.418;6.998;2022-11-18T07:57:07;1.00;;;0.90;;
16033;SDS011;8121;51.418;6.998;2022-11-18T08:07:09;1.87;;;1.47;;
16033;SDS011;8121;51.418;6.998;2022-11-18T08:17:12;1.40;;;1.20;;
16033;SDS011;8121;51.418;6.998;2022-11-18T08:27:13;6.87;;;1.80;;
16033;SDS011;8121;51.418;6.998;2022-11-18T08:37:16;4.83;;;2.10;;
16033;SDS011;8121;51.418;6.998;2022-11-18T08:47:18;2.57;;;1.20;;
16033;SDS011;8121;51.418;6.998;2022-11-18T08:57:21;1.07;;;1.07;;
16033;SDS011;8121;51.418;6.998;2022-11-18T09:07:32;1.43;;;1.07;;
16033;SDS011;8121;51.418;6.998;2022-11-18T09:17:35;1.33;;;1.00;;
16033;SDS011;8121;51.418;6.998;2022-11-18T09:27:37;1.40;;;1.30;;
16033;SDS011;8121;51.418;6.998;2022-11-18T09:37:40;1.00;;;0.87;;
16033;SDS011;8121;51.418;6.998;2022-11-18T09:47:41;6.07;;;1.57;;
16033;SDS011;8121;51.418;6.998;2022-11-18T09:57:45;1.33;;;1.17;;
16033;SDS011;8121;51.418;6.998;2022-11-18T10:07:50;3.40;;;1.20;;
16033;SDS011;8121;51.418;6.998;2022-11-18T10:18:06;1.53;;;1.10;;
16033;SDS011;8121;51.418;6.998;2022-11-18T10:48:38;7.07;;;1.53;;
16033;SDS011;8121;51.418;6.998;2022-11-18T10:58:40;1.27;;;0.90;;
16033;SDS011;8121;51.418;6.998;2022-11-18T11:08:48;0.90;;;0.80;;
16033;SDS011;8121;51.418;6.998;2022-11-18T11:18:51;4.50;;;1.70;;
16033;SDS011;8121;51.418;6.998;2022-11-18T11:28:57;1.80;;;1.30;;
16033;SDS011;8121;51.418;6.998;2022-11-18T11:39:06;5.40;;;1.30;;
16033;SDS011;8121;51.418;6.998;2022-11-18T11:49:22;6.47;;;1.43;;
16033;SDS011;8121;51.418;6.998;2022-11-18T11:59:27;4.23;;;1.50;;
16033;SDS011;8121;51.418;6.998;2022-11-18T12:09:48;5.93;;;1.20;;
16033;SDS011;8121;51.418;6.998;2022-11-18T12:19:52;2.77;;;1.17;;
16033;SDS011;8121;51.418;6.998;2022-11-18T12:29:55;4.10;;;0.80;;
16033;SDS011;8121;51.418;6.998;2022-11-18T12:39:59;7.07;;;2.00;;
16033;SDS011;8121;51.418;6.998;2022-11-18T12:50:12;2.70;;;1.00;;
16033;SDS011;8121;51.418;6.998;2022-11-18T13:00:15;2.70;;;0.80;;
16033;SDS011;8121;51.418;6.998;2022-11-18T13:10:21;3.73;;;0.87;;
16033;SDS011;8121;51.418;6.998;2022-11-18T13:20:24;5.30;;;1.60;;
16033;SDS011;8121;51.418;6.998;2022-11-18T13:40:53;1.97;;;0.60;;
16033;SDS011;8121;51.418;6.998;2022-11-18T14:32:14;1.43;;;0.60;;
16033;SDS011;8121;51.418;6.998;2022-11-18T14:42:16;1.97;;;1.10;;
16033;SDS011;8121;51.418;6.998;2022-11-18T14:52:18;4.20;;;1.03;;
16033;SDS011;8121;51.418;6.998;2022-11-18T15:02:20;4.20;;;0.90;;
16033;SDS011;8121;51.418;6.998;2022-11-18T15:12:23;4.23;;;1.60;;
16033;SDS011;8121;51.418;6.998;2022-11-18T15:22:24;1.83;;;1.00;;
16033;SDS011;8121;51.418;6.998;2022-11-18T15:32:27;1.27;;;1.17;;
16033;SDS011;8121;51.418;6.998;2022-11-18T15:42:29;2.30;;;1.00;;
16033;SDS011;8121;51.418;6.998;2022-11-18T15:52:31;2.17;;;1.03;;
16033;SDS011;8121;51.418;6.998;2022-11-18T16:02:33;3.00;;;1.10;;
16033;SDS011;8121;51.418;6.998;2022-11-18T16:12:36;3.20;;;1.20;;
16033;SDS011;8121;51.418;6.998;2022-11-18T16:22:49;7.63;;;1.73;;
16033;SDS011;8121;51.418;6.998;2022-11-18T16:32:54;1.20;;;1.10;;
16033;SDS011;8121;51.418;6.998;2022-11-18T16:42:55;1.50;;;1.00;;
16033;SDS011;8121;51.418;6.998;2022-11-18T16:52:58;1.30;;;1.20;;
16033;SDS011;8121;51.418;6.998;2022-11-18T17:03:00;1.53;;;1.40;;
16033;SDS011;8121;51.418;6.998;2022-11-18T17:13:03;1.40;;;1.30;;
16033;SDS011;8121;51.418;6.998;2022-11-18T17:23:05;1.43;;;1.33;;
16033;SDS011;8121;51.418;6.998;2022-11-18T17:33:07;1.40;;;1.10;;
16033;SDS011;8121;51.418;6.998;2022-11-18T17:43:09;2.80;;;1.53;;
16033;SDS011;8121;51.418;6.998;2022-11-18T17:53:12;1.97;;;1.50;;
16033;SDS011;8121;51.418;6.998;2022-11-18T18:03:14;1.37;;;1.27;;
16033;SDS011;8121;51.418;6.998;2022-11-18T18:13:17;6.23;;;1.60;;
16033;SDS011;8121;51.418;6.998;2022-11-18T18:23:36;2.40;;;2.20;;
16033;SDS011;8121;51.418;6.998;2022-11-18T18:33:39;2.70;;;2.50;;
16033;SDS011;8121;51.418;6.998;2022-11-18T18:43:41;10.67;;;4.73;;
16033;SDS011;8121;51.418;6.998;2022-11-18T18:53:44;16.30;;;7.77;;
16033;SDS011;8121;51.418;6.998;2022-11-18T19:03:46;4.73;;;4.10;;
16033;SDS011;8121;51.418;6.998;2022-11-18T19:13:49;5.10;;;3.83;;
16033;SDS011;8121;51.418;6.998;2022-11-18T19:23:51;8.33;;;5.60;;
16033;SDS011;8121;51.418;6.998;2022-11-18T19:33:54;6.03;;;5.43;;
16033;SDS011;8121;51.418;6.998;2022-11-18T19:43:55;14.20;;;7.90;;
16033;SDS011;8121;51.418;6.998;2022-11-18T19:53:58;4.23;;;3.83;;
16033;SDS011;8121;51.418;6.998;2022-11-18T20:04:00;9.73;;;6.00;;
16033;SDS011;8121;51.418;6.998;2022-11-18T20:14:03;10.80;;;7.73;;
16033;SDS011;8121;51.418;6.998;2022-11-18T20:24:05;15.17;;;9.20;;
16033;SDS011;8121;51.418;6.998;2022-11-18T20:34:11;12.30;;;7.87;;
16033;SDS011;8121;51.418;6.998;2022-11-18T20:44:13;4.33;;;3.90;;
16033;SDS011;8121;51.418;6.998;2022-11-18T20:54:15;4.90;;;3.80;;
16033;SDS011;8121;51.418;6.998;2022-11-18T21:04:17;4.60;;;3.57;;
16033;SDS011;8121;51.418;6.998;2022-11-18T21:14:20;4.60;;;4.20;;
16033;SDS011;8121;51.418;6.998;2022-11-18T21:24:26;7.47;;;5.10;;
16033;SDS011;8121;51.418;6.998;2022-11-18T21:34:29;6.20;;;2.73;;
16033;SDS011;8121;51.418;6.998;2022-11-18T21:44:31;5.47;;;4.63;;
16033;SDS011;8121;51.418;6.998;2022-11-18T21:54:34;4.10;;;3.80;;
16033;SDS011;8121;51.418;6.998;2022-11-18T22:04:35;4.70;;;4.23;;
16033;SDS011;8121;51.418;6.998;2022-11-18T22:14:58;3.13;;;2.77;;
16033;SDS011;8121;51.418;6.998;2022-11-18T22:24:59;5.27;;;3.73;;
16033;SDS011;8121;51.418;6.998;2022-11-18T22:35:07;3.50;;;2.60;;
16033;SDS011;8121;51.418;6.998;2022-11-18T22:45:09;10.20;;;5.30;;
16033;SDS011;8121;51.418;6.998;2022-11-18T22:55:12;4.07;;;3.67;;
16033;SDS011;8121;51.418;6.998;2022-11-18T23:05:14;2.60;;;2.40;;
16033;SDS011;8121;51.418;6.998;2022-11-18T23:15:17;11.63;;;5.77;;
16033;SDS011;8121;51.418;6.998;2022-11-18T23:25:18;3.97;;;3.57;;
16033;SDS011;8121;51.418;6.998;2022-11-18T23:35:21;3.00;;;2.70;;
16033;SDS011;8121;51.418;6.998;2022-11-18T23:45:23;2.33;;;2.17;;
16033;SDS011;8121;51.418;6.998;2022-11-18T23:55:26;5.53;;;2.70;;
